createdAt,value
2022-12-11T00:01:45.377Z,0.70
2022-12-11T00:04:16.371Z,0.70
2022-12-11T00:06:50.454Z,0.71
2022-12-11T00:09:22.721Z,0.71
2022-12-11T00:11:53.914Z,0.71
2022-12-11T00:14:25.267Z,0.71
2022-12-11T00:16:54.919Z,0.71
2022-12-11T00:19:26.127Z,0.70
2022-12-11T00:21:57.581Z,0.68
2022-12-11T00:24:28.665Z,0.68
2022-12-11T00:26:59.706Z,0.67
2022-12-11T00:29:29.608Z,0.68
2022-12-11T00:32:00.642Z,0.66
2022-12-11T00:34:30.348Z,0.66
2022-12-11T00:37:02.200Z,0.64
2022-12-11T00:39:33.464Z,0.62
2022-12-11T00:42:04.618Z,0.62
2022-12-11T00:44:36.192Z,0.62
2022-12-11T00:47:07.414Z,0.61
2022-12-11T00:49:38.308Z,0.59
2022-12-11T00:52:10.993Z,0.55
2022-12-11T00:54:41.903Z,0.51
2022-12-11T00:57:12.955Z,0.48
2022-12-11T00:59:44.102Z,0.46
2022-12-11T01:02:13.928Z,0.45
2022-12-11T01:04:45.379Z,0.42
2022-12-11T01:07:16.356Z,0.41
2022-12-11T01:10:05.189Z,0.42
2022-12-11T01:12:39.501Z,0.44
2022-12-11T01:15:12.493Z,0.47
2022-12-11T01:17:43.650Z,0.49
2022-12-11T01:20:15.217Z,0.50
2022-12-11T01:22:44.605Z,0.49
2022-12-11T01:25:16.324Z,0.47
2022-12-11T01:27:48.046Z,0.48
2022-12-11T01:30:17.442Z,0.48
2022-12-11T01:32:49.192Z,0.47
2022-12-11T01:35:21.054Z,0.47
2022-12-11T01:37:52.038Z,0.46
2022-12-11T01:40:23.871Z,0.47
2022-12-11T01:42:54.870Z,0.46
2022-12-11T01:45:44.852Z,0.44
2022-12-11T01:48:19.902Z,0.42
2022-12-11T01:50:54.589Z,0.41
2022-12-11T01:53:29.183Z,0.41
2022-12-11T01:56:01.748Z,0.42
2022-12-11T01:58:36.471Z,0.44
2022-12-11T02:01:08.161Z,0.46
2022-12-11T02:03:39.263Z,0.49
2022-12-11T02:06:34.960Z,0.51
2022-12-11T02:09:08.567Z,0.51
2022-12-11T02:11:48.866Z,0.52
2022-12-11T02:14:29.793Z,0.52
2022-12-11T02:17:06.632Z,0.54
2022-12-11T02:19:57.242Z,0.55
2022-12-11T02:22:39.990Z,0.54
2022-12-11T02:25:20.274Z,0.52
2022-12-11T02:27:56.757Z,0.50
2022-12-11T02:30:28.063Z,0.50
2022-12-11T02:33:01.799Z,0.51
2022-12-11T02:35:39.063Z,0.51
2022-12-11T02:38:14.578Z,0.50
2022-12-11T02:40:50.015Z,0.47
2022-12-11T02:43:23.522Z,0.42
2022-12-11T02:45:55.369Z,0.38
2022-12-11T02:48:27.127Z,0.33
2022-12-11T02:51:00.702Z,0.28
2022-12-11T02:53:36.816Z,0.23
2022-12-11T02:56:14.168Z,0.17
2022-12-11T02:58:52.760Z,0.09
2022-12-11T03:01:28.559Z,-0.01
2022-12-11T03:04:00.805Z,-0.07
2022-12-11T03:06:37.380Z,-0.10
2022-12-11T03:09:08.686Z,-0.09
2022-12-11T03:11:39.632Z,-0.06
2022-12-11T03:14:11.500Z,-0.02
2022-12-11T03:16:51.722Z,-0.00
2022-12-11T03:19:32.243Z,-0.02
2022-12-11T03:22:10.659Z,-0.04
2022-12-11T03:24:46.888Z,-0.07
2022-12-11T03:27:25.935Z,-0.11
2022-12-11T03:30:00.483Z,-0.14
2022-12-11T03:32:37.843Z,-0.16
2022-12-11T03:35:15.134Z,-0.16
2022-12-11T03:37:49.132Z,-0.16
2022-12-11T03:40:23.350Z,-0.16
2022-12-11T03:42:57.118Z,-0.15
2022-12-11T03:45:30.701Z,-0.16
2022-12-11T03:48:03.788Z,-0.16
2022-12-11T03:50:36.655Z,-0.15
2022-12-11T03:53:08.234Z,-0.15
2022-12-11T03:55:40.834Z,-0.14
2022-12-11T03:58:11.964Z,-0.15
2022-12-11T04:00:43.046Z,-0.14
2022-12-11T04:03:14.535Z,-0.17
2022-12-11T04:05:51.171Z,-0.12
2022-12-11T04:08:23.314Z,-0.12
2022-12-11T04:11:15.124Z,-0.12
2022-12-11T04:13:46.105Z,-0.10
2022-12-11T04:16:17.140Z,-0.09
2022-12-11T04:19:05.744Z,-0.07
2022-12-11T04:21:54.423Z,-0.09
2022-12-11T04:24:25.591Z,-0.08
2022-12-11T04:26:56.491Z,-0.09
2022-12-11T04:29:27.616Z,-0.09
2022-12-11T04:31:58.939Z,-0.12
2022-12-11T04:34:30.287Z,-0.12
2022-12-11T04:37:01.488Z,-0.13
2022-12-11T04:39:32.386Z,-0.14
2022-12-11T04:42:03.268Z,-0.16
2022-12-11T04:44:34.768Z,-0.16
2022-12-11T04:47:05.793Z,-0.16
2022-12-11T04:49:36.517Z,-0.16
2022-12-11T04:52:07.802Z,-0.17
2022-12-11T04:54:39.345Z,-0.17
2022-12-11T04:57:10.577Z,-0.17
2022-12-11T04:59:41.714Z,-0.16
2022-12-11T05:02:13.025Z,-0.15
2022-12-11T05:04:44.815Z,-0.15
2022-12-11T05:07:15.715Z,-0.15
2022-12-11T05:09:46.988Z,-0.15
2022-12-11T05:12:18.212Z,-0.14
2022-12-11T05:14:52.295Z,-0.16
2022-12-11T05:17:23.485Z,-0.14
2022-12-11T05:19:54.836Z,-0.13
2022-12-11T05:22:25.760Z,-0.13
2022-12-11T05:24:56.712Z,-0.12
2022-12-11T05:27:27.977Z,-0.12
2022-12-11T05:29:59.735Z,-0.10
2022-12-11T05:32:31.160Z,-0.10
2022-12-11T05:35:02.000Z,-0.11
2022-12-11T05:37:35.695Z,-0.10
2022-12-11T05:40:07.599Z,-0.11
2022-12-11T05:42:38.509Z,-0.11
2022-12-11T05:45:11.297Z,-0.10
2022-12-11T05:47:42.461Z,-0.11
2022-12-11T05:50:13.697Z,-0.10
2022-12-11T05:52:44.924Z,-0.08
2022-12-11T05:55:15.925Z,-0.06
2022-12-11T05:57:46.902Z,-0.06
2022-12-11T06:00:18.061Z,-0.06
2022-12-11T06:02:49.292Z,-0.08
2022-12-11T06:05:20.490Z,-0.11
2022-12-11T06:07:51.593Z,-0.12
2022-12-11T06:10:22.773Z,-0.12
2022-12-11T06:12:53.803Z,-0.14
2022-12-11T06:15:24.938Z,-0.14
2022-12-11T06:17:56.411Z,-0.16
2022-12-11T06:20:27.488Z,-0.17
2022-12-11T06:22:58.735Z,-0.17
2022-12-11T06:25:30.608Z,-0.16
2022-12-11T06:28:02.113Z,-0.15
2022-12-11T06:30:38.937Z,-0.15
2022-12-11T06:33:10.665Z,-0.15
2022-12-11T06:35:42.519Z,-0.14
2022-12-11T06:38:14.069Z,-0.15
2022-12-11T06:40:45.520Z,-0.17
2022-12-11T06:43:15.124Z,-0.20
2022-12-11T06:45:46.176Z,-0.22
2022-12-11T06:48:17.651Z,-0.23
2022-12-11T06:50:48.686Z,-0.21
2022-12-11T06:53:19.810Z,-0.20
2022-12-11T06:55:51.127Z,-0.19
2022-12-11T06:58:20.784Z,-0.20
2022-12-11T07:00:51.560Z,-0.22
2022-12-11T07:03:22.644Z,-0.23
2022-12-11T07:05:53.829Z,-0.22
2022-12-11T07:08:24.890Z,-0.22
2022-12-11T07:10:55.822Z,-0.22
2022-12-11T07:13:26.935Z,-0.23
2022-12-11T07:16:02.030Z,-0.25
2022-12-11T07:18:33.522Z,-0.27
2022-12-11T07:21:04.748Z,-0.30
2022-12-11T07:23:36.807Z,-0.35
2022-12-11T07:26:12.486Z,-0.39
2022-12-11T07:28:44.077Z,-0.43
2022-12-11T07:31:17.366Z,-0.42
2022-12-11T07:33:48.690Z,-0.41
2022-12-11T07:36:19.769Z,-0.39
2022-12-11T07:38:50.953Z,-0.38
2022-12-11T07:41:23.223Z,-0.37
2022-12-11T07:43:54.247Z,-0.39
2022-12-11T07:46:27.874Z,-0.43
2022-12-11T07:49:01.051Z,-0.46
2022-12-11T07:51:35.543Z,-0.49
2022-12-11T07:54:10.745Z,-0.54
2022-12-11T07:56:43.947Z,-0.58
2022-12-11T07:59:16.734Z,-0.57
2022-12-11T08:01:47.841Z,-0.58
2022-12-11T08:04:18.989Z,-0.60
2022-12-11T08:06:49.958Z,-0.61
2022-12-11T08:09:22.813Z,-0.58
2022-12-11T08:11:54.625Z,-0.55
2022-12-11T08:14:25.648Z,-0.57
2022-12-11T08:16:57.572Z,-0.58
2022-12-11T08:19:29.327Z,-0.63
2022-12-11T08:22:00.343Z,-0.69
2022-12-11T08:24:31.715Z,-0.72
2022-12-11T08:27:01.327Z,-0.71
2022-12-11T08:29:32.446Z,-0.73
2022-12-11T08:32:06.404Z,-0.71
2022-12-11T08:34:41.804Z,-0.76
2022-12-11T08:37:13.754Z,-0.78
2022-12-11T08:39:47.010Z,-0.82
2022-12-11T08:42:18.175Z,-0.87
2022-12-11T08:44:49.156Z,-0.90
2022-12-11T08:47:20.168Z,-0.93
2022-12-11T08:49:51.521Z,-0.94
2022-12-11T08:52:23.108Z,-0.96
2022-12-11T08:54:54.669Z,-1.00
2022-12-11T08:57:25.667Z,-1.01
2022-12-11T08:59:56.872Z,-1.01
2022-12-11T09:02:28.333Z,-0.99
2022-12-11T09:04:57.885Z,-0.96
2022-12-11T09:07:28.811Z,-0.97
2022-12-11T09:09:59.706Z,-0.97
2022-12-11T09:12:31.269Z,-0.95
2022-12-11T09:15:00.538Z,-0.95
2022-12-11T09:17:31.732Z,-0.96
2022-12-11T09:20:02.927Z,-0.93
2022-12-11T09:22:34.677Z,-0.89
2022-12-11T09:25:06.105Z,-0.89
2022-12-11T09:27:36.649Z,-0.89
2022-12-11T09:30:09.518Z,-0.89
2022-12-11T09:32:40.992Z,-0.88
2022-12-11T09:35:12.968Z,-0.96
2022-12-11T09:37:44.262Z,-1.08
2022-12-11T09:40:16.260Z,-1.13
2022-12-11T09:42:55.670Z,-1.14
2022-12-11T09:45:27.066Z,-1.17
2022-12-11T09:47:59.402Z,-1.21
2022-12-11T09:50:32.998Z,-1.24
2022-12-11T09:53:12.641Z,-1.23
2022-12-11T09:55:51.187Z,-1.27
2022-12-11T09:58:30.787Z,-1.25
2022-12-11T10:01:10.081Z,-1.22
2022-12-11T10:04:08.450Z,-1.19
2022-12-11T10:06:44.272Z,-1.18
2022-12-11T10:09:21.082Z,-1.25
2022-12-11T10:12:06.649Z,-1.28
2022-12-11T10:14:54.328Z,-1.29
2022-12-11T10:17:29.706Z,-1.28
2022-12-11T10:20:09.035Z,-1.25
2022-12-11T10:22:40.171Z,-1.23
2022-12-11T10:25:23.078Z,-1.25
2022-12-11T10:27:54.127Z,-1.33
2022-12-11T10:30:30.463Z,-1.39
2022-12-11T10:33:15.753Z,-1.44
2022-12-11T10:35:49.615Z,-1.44
2022-12-11T10:38:27.617Z,-1.45
2022-12-11T10:41:01.929Z,-1.43
2022-12-11T10:43:37.615Z,-1.44
2022-12-11T10:46:16.450Z,-1.44
2022-12-11T10:48:53.303Z,-1.46
2022-12-11T10:51:26.118Z,-1.43
2022-12-11T10:54:07.958Z,-1.38
2022-12-11T10:56:40.404Z,-1.36
2022-12-11T10:59:24.410Z,-1.37
2022-12-11T11:01:56.404Z,-1.40
2022-12-11T11:04:33.107Z,-1.40
2022-12-11T11:07:14.912Z,-1.43
2022-12-11T11:09:46.164Z,-1.47
2022-12-11T11:12:27.335Z,-1.51
2022-12-11T11:15:06.953Z,-1.47
2022-12-11T11:17:54.256Z,-1.44
2022-12-11T11:20:28.481Z,-1.42
2022-12-11T11:23:01.865Z,-1.44
2022-12-11T11:25:34.922Z,-1.44
2022-12-11T11:28:08.059Z,-1.42
2022-12-11T11:30:42.690Z,-1.43
2022-12-11T11:33:19.262Z,-1.44
2022-12-11T11:35:57.705Z,-1.46
2022-12-11T11:38:32.929Z,-1.47
2022-12-11T11:41:15.127Z,-1.44
2022-12-11T11:43:49.093Z,-1.38
2022-12-11T11:46:27.742Z,-1.31
2022-12-11T11:49:08.767Z,-1.24
2022-12-11T11:51:44.587Z,-1.17
2022-12-11T11:54:26.436Z,-1.11
2022-12-11T11:57:00.189Z,-1.04
2022-12-11T11:59:37.550Z,-0.96
2022-12-11T12:02:17.700Z,-0.87
2022-12-11T12:04:51.378Z,-0.76
2022-12-11T12:07:34.804Z,-0.67
2022-12-11T12:10:16.124Z,-0.60
2022-12-11T12:12:55.457Z,-0.65
2022-12-11T12:15:37.863Z,-0.72
2022-12-11T12:18:21.310Z,-0.75
2022-12-11T12:21:03.647Z,-0.79
2022-12-11T12:23:57.170Z,-0.90
2022-12-11T12:26:30.694Z,-1.03
2022-12-11T12:29:12.410Z,-1.12
2022-12-11T12:32:01.319Z,-1.24
2022-12-11T12:34:46.052Z,-1.36
2022-12-11T12:37:26.245Z,-1.47
2022-12-11T12:40:09.631Z,-1.58
2022-12-11T12:42:50.266Z,-1.68
2022-12-11T12:45:30.598Z,-1.77
2022-12-11T12:48:03.077Z,-1.79
2022-12-11T12:50:43.130Z,-1.83
2022-12-11T12:53:18.671Z,-1.86
2022-12-11T12:55:51.464Z,-1.94
2022-12-11T12:58:40.822Z,-2.01
2022-12-11T13:01:16.396Z,-2.05
2022-12-11T13:03:57.484Z,-2.08
2022-12-11T13:06:38.271Z,-2.12
2022-12-11T13:09:19.790Z,-2.13
2022-12-11T13:11:54.598Z,-2.17
2022-12-11T13:14:30.336Z,-2.17
2022-12-11T13:17:27.540Z,-2.17
2022-12-11T13:20:19.091Z,-2.17
2022-12-11T13:22:57.404Z,-2.16
2022-12-11T13:25:34.392Z,-2.17
2022-12-11T13:28:21.900Z,-2.20
2022-12-11T13:31:30.110Z,-2.21
2022-12-11T13:34:15.237Z,-2.20
2022-12-11T13:36:49.856Z,-2.20
2022-12-11T13:39:24.089Z,-2.22
2022-12-11T13:41:58.754Z,-2.25
2022-12-11T13:44:32.972Z,-2.25
2022-12-11T13:47:07.199Z,-2.27
2022-12-11T13:49:41.772Z,-2.27
2022-12-11T13:52:22.319Z,-2.31
2022-12-11T13:54:55.835Z,-2.32
2022-12-11T13:57:28.541Z,-2.32
2022-12-11T14:00:00.990Z,-2.34
2022-12-11T14:02:35.199Z,-2.35
2022-12-11T14:05:11.162Z,-2.36
2022-12-11T14:07:48.068Z,-2.41
2022-12-11T14:10:22.117Z,-2.46
2022-12-11T14:12:58.377Z,-2.46
2022-12-11T14:15:31.959Z,-2.50
2022-12-11T14:18:05.464Z,-2.56
2022-12-11T14:20:37.154Z,-2.61
2022-12-11T14:23:16.208Z,-2.66
2022-12-11T14:25:55.613Z,-2.70
2022-12-11T14:28:28.558Z,-2.72
2022-12-11T14:31:02.763Z,-2.73
2022-12-11T14:33:38.294Z,-2.76
2022-12-11T14:36:11.037Z,-2.77
2022-12-11T14:38:47.594Z,-2.77
2022-12-11T14:41:22.818Z,-2.78
2022-12-11T14:43:58.274Z,-2.80
2022-12-11T14:46:38.419Z,-2.82
2022-12-11T14:49:18.323Z,-2.85
2022-12-11T14:51:50.394Z,-2.85
2022-12-11T14:54:32.847Z,-2.81
2022-12-11T14:57:07.171Z,-2.78
2022-12-11T14:59:45.735Z,-2.72
2022-12-11T15:02:30.104Z,-2.71
2022-12-11T15:05:12.209Z,-2.73
2022-12-11T15:07:45.172Z,-2.74
2022-12-11T15:10:31.380Z,-2.72
2022-12-11T15:13:02.709Z,-2.75
2022-12-11T15:15:47.629Z,-2.81
2022-12-11T15:18:23.234Z,-2.87
2022-12-11T15:20:57.714Z,-2.92
2022-12-11T15:23:28.854Z,-2.97
2022-12-11T15:26:02.957Z,-3.01
2022-12-11T15:28:36.746Z,-3.09
2022-12-11T15:31:25.079Z,-3.12
2022-12-11T15:33:56.609Z,-3.14
2022-12-11T15:36:27.224Z,-3.16
2022-12-11T15:38:58.736Z,-3.17
2022-12-11T15:41:33.347Z,-3.18
2022-12-11T15:44:05.880Z,-3.20
2022-12-11T15:46:39.395Z,-3.22
2022-12-11T15:49:14.305Z,-3.23
2022-12-11T15:51:45.381Z,-3.25
2022-12-11T15:54:16.454Z,-3.25
2022-12-11T15:56:47.487Z,-3.23
2022-12-11T15:59:19.191Z,-3.24
2022-12-11T16:01:50.181Z,-3.25
2022-12-11T16:04:21.225Z,-3.27
2022-12-11T16:06:55.301Z,-3.28
2022-12-11T16:09:26.467Z,-3.27
2022-12-11T16:11:57.542Z,-3.28
2022-12-11T16:14:28.789Z,-3.29
2022-12-11T16:16:59.830Z,-3.27
2022-12-11T16:19:30.919Z,-3.27
2022-12-11T16:22:02.384Z,-3.31
2022-12-11T16:24:33.587Z,-3.32
2022-12-11T16:27:05.996Z,-3.33
2022-12-11T16:29:38.735Z,-3.34
2022-12-11T16:32:10.146Z,-3.37
2022-12-11T16:34:41.233Z,-3.41
2022-12-11T16:37:13.061Z,-3.44
2022-12-11T16:39:46.062Z,-3.47
2022-12-11T16:42:17.019Z,-3.47
2022-12-11T16:44:48.510Z,-3.48
2022-12-11T16:47:19.745Z,-3.48
2022-12-11T16:49:50.768Z,-3.51
2022-12-11T16:52:22.442Z,-3.53
2022-12-11T16:54:53.578Z,-3.56
2022-12-11T16:57:24.775Z,-3.59
2022-12-11T16:59:55.868Z,-3.65
2022-12-11T17:02:26.986Z,-3.67
2022-12-11T17:04:58.146Z,-3.67
2022-12-11T17:07:29.152Z,-3.69
2022-12-11T17:10:00.916Z,-3.70
2022-12-11T17:12:32.021Z,-3.72
2022-12-11T17:15:03.072Z,-3.71
2022-12-11T17:17:34.522Z,-3.71
2022-12-11T17:20:06.178Z,-3.69
2022-12-11T17:22:37.780Z,-3.68
2022-12-11T17:25:09.932Z,-3.68
2022-12-11T17:27:40.998Z,-3.65
2022-12-11T17:30:14.308Z,-3.64
2022-12-11T17:32:47.839Z,-3.66
2022-12-11T17:35:19.274Z,-3.70
2022-12-11T17:37:50.610Z,-3.71
2022-12-11T17:40:23.055Z,-3.71
2022-12-11T17:42:53.929Z,-3.71
2022-12-11T17:45:24.948Z,-3.73
2022-12-11T17:47:56.374Z,-3.74
2022-12-11T17:50:29.559Z,-3.75
2022-12-11T17:53:00.750Z,-3.76
2022-12-11T17:55:31.723Z,-3.77
2022-12-11T17:58:02.839Z,-3.78
2022-12-11T18:00:34.080Z,-3.78
2022-12-11T18:03:05.129Z,-3.76
2022-12-11T18:05:37.282Z,-3.74
2022-12-11T18:08:08.948Z,-3.73
2022-12-11T18:10:39.944Z,-3.73
2022-12-11T18:13:11.358Z,-3.73
2022-12-11T18:15:42.527Z,-3.72
2022-12-11T18:18:13.813Z,-3.70
2022-12-11T18:20:44.786Z,-3.70
2022-12-11T18:23:15.725Z,-3.73
2022-12-11T18:25:47.035Z,-3.72
2022-12-11T18:28:18.339Z,-3.70
2022-12-11T18:30:49.966Z,-3.68
2022-12-11T18:33:19.422Z,-3.68
2022-12-11T18:35:51.742Z,-3.68
2022-12-11T18:38:22.929Z,-3.67
2022-12-11T18:40:53.978Z,-3.68
2022-12-11T18:43:24.763Z,-3.68
2022-12-11T18:45:55.623Z,-3.71
2022-12-11T18:48:26.401Z,-3.72
2022-12-11T18:50:57.609Z,-3.70
2022-12-11T18:53:28.892Z,-3.70
2022-12-11T18:56:00.742Z,-3.68
2022-12-11T18:58:31.900Z,-3.71
2022-12-11T19:01:09.023Z,-3.75
2022-12-11T19:03:40.380Z,-3.77
2022-12-11T19:06:14.872Z,-3.79
2022-12-11T19:08:46.382Z,-3.77
2022-12-11T19:11:18.770Z,-3.75
2022-12-11T19:13:50.173Z,-3.75
2022-12-11T19:16:22.929Z,-3.76
2022-12-11T19:18:54.184Z,-3.75
2022-12-11T19:21:25.379Z,-3.75
2022-12-11T19:23:57.291Z,-3.75
2022-12-11T19:26:28.847Z,-3.75
2022-12-11T19:29:00.361Z,-3.76
2022-12-11T19:31:33.715Z,-3.78
2022-12-11T19:34:05.081Z,-3.76
2022-12-11T19:36:37.298Z,-3.76
2022-12-11T19:39:12.978Z,-3.75
2022-12-11T19:41:45.142Z,-3.78
2022-12-11T19:44:14.785Z,-3.80
2022-12-11T19:46:45.851Z,-3.81
2022-12-11T19:49:17.151Z,-3.81
2022-12-11T19:51:48.584Z,-3.79
2022-12-11T19:54:20.643Z,-3.76
2022-12-11T19:56:52.405Z,-3.79
2022-12-11T19:59:23.350Z,-3.81
2022-12-11T20:01:54.423Z,-3.82
2022-12-11T20:04:25.463Z,-3.81
2022-12-11T20:06:56.745Z,-3.78
2022-12-11T20:09:28.325Z,-3.79
2022-12-11T20:11:57.954Z,-3.80
2022-12-11T20:14:29.126Z,-3.80
2022-12-11T20:17:15.752Z,-3.80
2022-12-11T20:19:46.967Z,-3.80
2022-12-11T20:22:17.844Z,-3.79
2022-12-11T20:24:48.712Z,-3.78
2022-12-11T20:27:19.883Z,-3.77
2022-12-11T20:29:50.949Z,-3.79
2022-12-11T20:32:25.835Z,-3.81
2022-12-11T20:34:59.163Z,-3.83
2022-12-11T20:37:30.120Z,-3.85
2022-12-11T20:40:05.077Z,-3.84
2022-12-11T20:42:36.641Z,-3.84
2022-12-11T20:45:06.975Z,-3.86
2022-12-11T20:47:38.045Z,-3.88
2022-12-11T20:50:11.179Z,-3.88
2022-12-11T20:52:42.225Z,-3.89
2022-12-11T20:55:13.935Z,-3.88
2022-12-11T20:57:45.535Z,-3.86
2022-12-11T21:00:20.137Z,-3.80
2022-12-11T21:02:52.380Z,-3.77
2022-12-11T21:05:24.005Z,-3.75
2022-12-11T21:07:57.311Z,-3.74
2022-12-11T21:10:28.402Z,-3.71
2022-12-11T21:12:59.346Z,-3.70
2022-12-11T21:15:30.625Z,-3.66
2022-12-11T21:18:01.701Z,-3.63
2022-12-11T21:20:32.573Z,-3.60
2022-12-11T21:23:04.253Z,-3.59
2022-12-11T21:25:33.657Z,-3.57
2022-12-11T21:28:05.713Z,-3.57
2022-12-11T21:30:40.090Z,-3.55
2022-12-11T21:33:11.269Z,-3.55
2022-12-11T21:35:42.378Z,-3.54
2022-12-11T21:38:13.708Z,-3.56
2022-12-11T21:40:44.573Z,-3.58
2022-12-11T21:43:15.517Z,-3.59
2022-12-11T21:46:02.486Z,-3.57
2022-12-11T21:48:33.829Z,-3.57
2022-12-11T21:51:10.781Z,-3.59
2022-12-11T21:53:43.714Z,-3.57
2022-12-11T21:56:18.065Z,-3.55
2022-12-11T21:58:50.647Z,-3.54
2022-12-11T22:01:24.576Z,-3.52
2022-12-11T22:03:56.234Z,-3.50
2022-12-11T22:06:27.002Z,-3.50
2022-12-11T22:08:58.129Z,-3.48
2022-12-11T22:11:31.447Z,-3.47
2022-12-11T22:14:02.728Z,-3.47
2022-12-11T22:16:34.160Z,-3.48
2022-12-11T22:19:05.122Z,-3.46
2022-12-11T22:21:36.534Z,-3.46
2022-12-11T22:24:08.282Z,-3.46
2022-12-11T22:26:40.116Z,-3.48
2022-12-11T22:29:11.218Z,-3.48
2022-12-11T22:31:42.260Z,-3.49
2022-12-11T22:34:13.150Z,-3.51
2022-12-11T22:36:44.484Z,-3.52
2022-12-11T22:39:15.541Z,-3.52
2022-12-11T22:41:46.708Z,-3.52
2022-12-11T22:44:20.070Z,-3.53
2022-12-11T22:46:51.297Z,-3.54
2022-12-11T22:49:22.329Z,-3.55
2022-12-11T22:51:53.331Z,-3.56
2022-12-11T22:54:24.615Z,-3.57
2022-12-11T22:56:55.938Z,-3.60
2022-12-11T22:59:27.521Z,-3.61
2022-12-11T23:01:58.448Z,-3.60
2022-12-11T23:04:29.322Z,-3.60
2022-12-11T23:07:00.527Z,-3.63
2022-12-11T23:09:31.538Z,-3.66
2022-12-11T23:12:02.996Z,-3.67
2022-12-11T23:14:33.907Z,-3.66
2022-12-11T23:17:05.031Z,-3.66
2022-12-11T23:19:36.397Z,-3.65
2022-12-11T23:22:07.426Z,-3.65
2022-12-11T23:24:38.627Z,-3.66
2022-12-11T23:27:09.734Z,-3.71
2022-12-11T23:29:40.757Z,-3.73
2022-12-11T23:32:11.815Z,-3.79
2022-12-11T23:34:42.671Z,-3.84
2022-12-11T23:37:14.146Z,-3.88
2022-12-11T23:39:45.079Z,-3.91
2022-12-11T23:42:16.227Z,-3.96
2022-12-11T23:44:47.705Z,-4.01
2022-12-11T23:47:18.660Z,-4.05
2022-12-11T23:49:49.648Z,-4.06
2022-12-11T23:52:22.671Z,-4.06
2022-12-11T23:54:55.374Z,-4.04
2022-12-11T23:57:26.384Z,-4.02
2022-12-11T23:59:57.647Z,-4.03
